Time,TemperatureF,DewpointF,PressureIn,WindDirection,WindDirectionDegrees,WindSpeedMPH,WindSpeedGustMPH,Humidity,HourlyPrecipIn,Conditions,Clouds,dailyrainin,SolarRadiationWatts/m^2,SoftwareType,DateUTC
2013-07-21 00:02:00,69.0,61.0,-100.00,ESE,107,5.0,11.0,75,0.00,,,0.00,0.000000,,2013-07-21 05:02:00,
2013-07-21 00:32:00,66.0,60.0,-100.00,SE,126,5.0,11.0,80,0.00,,,0.00,0.000000,,2013-07-21 05:32:00,
2013-07-21 00:42:00,66.0,60.0,-100.00,SE,126,5.0,11.0,80,0.00,,,0.00,0.000000,,2013-07-21 05:42:00,
2013-07-21 00:52:00,66.0,60.0,-100.00,SE,126,5.0,11.0,80,0.00,,,0.00,0.000000,,2013-07-21 05:52:00,
2013-07-21 01:01:00,66.0,60.0,-100.00,SE,126,5.0,11.0,80,0.00,,,0.00,0.000000,,2013-07-21 06:01:00,
2013-07-21 01:32:00,64.0,56.0,-100.00,SE,125,7.0,11.0,75,0.00,,,0.00,0.000000,,2013-07-21 06:32:00,
2013-07-21 01:43:00,64.0,56.0,-100.00,SE,125,7.0,11.0,75,0.00,,,0.00,0.000000,,2013-07-21 06:43:00,
2013-07-21 01:53:00,64.0,56.0,-100.00,SE,125,7.0,11.0,75,0.00,,,0.00,0.000000,,2013-07-21 06:53:00,
2013-07-21 02:01:00,64.0,56.0,-100.00,SE,125,7.0,11.0,75,0.00,,,0.00,0.000000,,2013-07-21 07:01:00,
2013-07-21 02:32:00,64.0,55.0,-100.00,SE,126,5.0,12.0,73,0.00,,,0.00,0.000000,,2013-07-21 07:32:00,
2013-07-21 02:43:00,64.0,55.0,-100.00,SE,126,5.0,12.0,73,0.00,,,0.00,0.000000,,2013-07-21 07:43:00,
2013-07-21 02:53:00,64.0,55.0,-100.00,SE,126,5.0,12.0,73,0.00,,,0.00,0.000000,,2013-07-21 07:53:00,
2013-07-21 03:01:00,64.0,55.0,-100.00,SE,126,5.0,12.0,73,0.00,,,0.00,0.000000,,2013-07-21 08:01:00,
2013-07-21 03:33:00,63.0,55.0,-100.00,ENE,68,7.0,16.0,76,0.00,,,0.00,0.000000,,2013-07-21 08:33:00,
2013-07-21 03:43:00,63.0,55.0,-100.00,ENE,68,7.0,16.0,76,0.00,,,0.00,0.000000,,2013-07-21 08:43:00,
2013-07-21 03:52:00,63.0,55.0,-100.00,ENE,68,7.0,16.0,76,0.00,,,0.00,0.000000,,2013-07-21 08:52:00,
2013-07-21 04:02:00,63.0,55.0,-100.00,ENE,68,7.0,16.0,76,0.00,,,0.00,0.000000,,2013-07-21 09:02:00,
2013-07-21 04:32:00,62.0,55.0,-100.00,ESE,117,6.0,17.0,78,0.00,,,0.00,0.000000,,2013-07-21 09:32:00,
2013-07-21 04:42:00,62.0,55.0,-100.00,ESE,117,6.0,17.0,78,0.00,,,0.00,0.000000,,2013-07-21 09:42:00,
2013-07-21 04:52:00,62.0,55.0,-100.00,ESE,117,6.0,17.0,78,0.00,,,0.00,0.000000,,2013-07-21 09:52:00,
2013-07-21 05:02:00,62.0,55.0,-100.00,ESE,117,6.0,17.0,78,0.00,,,0.00,0.000000,,2013-07-21 10:02:00,
2013-07-21 05:32:00,60.0,56.0,-100.00,ENE,60,2.0,9.0,88,0.00,,,0.00,0.000000,,2013-07-21 10:32:00,
2013-07-21 05:43:00,60.0,56.0,-100.00,ENE,60,2.0,9.0,88,0.00,,,0.00,0.000000,,2013-07-21 10:43:00,
2013-07-21 05:52:00,60.0,56.0,-100.00,ENE,60,2.0,9.0,88,0.00,,,0.00,0.000000,,2013-07-21 10:52:00,
2013-07-21 06:02:00,60.0,56.0,-100.00,ENE,60,2.0,9.0,88,0.00,,,0.00,0.000000,,2013-07-21 11:02:00,
2013-07-21 06:33:00,59.0,54.0,-100.00,ENE,62,3.0,7.0,85,0.00,,,0.00,4.000000,,2013-07-21 11:33:00,
2013-07-21 06:43:00,59.0,54.0,-100.00,ENE,62,3.0,7.0,85,0.00,,,0.00,4.000000,,2013-07-21 11:43:00,
2013-07-21 06:52:00,59.0,54.0,-100.00,ENE,62,3.0,7.0,85,0.00,,,0.00,4.000000,,2013-07-21 11:52:00,
2013-07-21 07:01:00,59.0,54.0,-100.00,ENE,62,3.0,7.0,85,0.00,,,0.00,4.000000,,2013-07-21 12:01:00,
2013-07-21 07:32:00,60.0,55.0,-100.00,ESE,107,4.0,7.0,84,0.00,,,0.00,52.000000,,2013-07-21 12:32:00,
2013-07-21 07:43:00,60.0,55.0,-100.00,ESE,107,4.0,7.0,84,0.00,,,0.00,52.000000,,2013-07-21 12:43:00,
2013-07-21 07:53:00,60.0,55.0,-100.00,ESE,107,4.0,7.0,84,0.00,,,0.00,52.000000,,2013-07-21 12:53:00,
2013-07-21 08:01:00,60.0,55.0,-100.00,ESE,107,4.0,7.0,84,0.00,,,0.00,52.000000,,2013-07-21 13:01:00,
2013-07-21 08:33:00,62.0,55.0,-100.00,ESE,118,8.0,12.0,78,0.00,,,0.00,102.000000,,2013-07-21 13:33:00,
2013-07-21 08:43:00,62.0,55.0,-100.00,ESE,118,8.0,12.0,78,0.00,,,0.00,102.000000,,2013-07-21 13:43:00,
2013-07-21 08:53:00,62.0,55.0,-100.00,ESE,118,8.0,12.0,78,0.00,,,0.00,102.000000,,2013-07-21 13:53:00,
2013-07-21 09:01:00,62.0,55.0,-100.00,ESE,118,8.0,12.0,78,0.00,,,0.00,102.000000,,2013-07-21 14:01:00,
2013-07-21 09:32:00,66.0,55.0,-100.00,ESE,112,7.0,14.0,68,0.00,,,0.00,311.000000,,2013-07-21 14:32:00,
2013-07-21 09:43:00,66.0,55.0,-100.00,ESE,112,7.0,14.0,68,0.00,,,0.00,311.000000,,2013-07-21 14:43:00,
2013-07-21 09:53:00,66.0,55.0,-100.00,ESE,112,7.0,14.0,68,0.00,,,0.00,311.000000,,2013-07-21 14:53:00,
2013-07-21 10:02:00,66.0,55.0,-100.00,ESE,112,7.0,14.0,68,0.00,,,0.00,311.000000,,2013-07-21 15:02:00,
2013-07-21 10:32:00,68.0,56.0,-100.00,ESE,115,6.0,13.0,66,0.00,,,0.00,220.000000,,2013-07-21 15:32:00,
2013-07-21 10:43:00,68.0,56.0,-100.00,ESE,115,6.0,13.0,66,0.00,,,0.00,220.000000,,2013-07-21 15:43:00,
2013-07-21 10:53:00,68.0,56.0,-100.00,ESE,115,6.0,13.0,66,0.00,,,0.00,220.000000,,2013-07-21 15:53:00,
2013-07-21 11:01:00,68.0,56.0,-100.00,ESE,115,6.0,13.0,66,0.00,,,0.00,220.000000,,2013-07-21 16:01:00,
2013-07-21 11:32:00,71.0,55.0,-100.00,SE,132,7.0,13.0,57,0.00,,,0.00,471.000000,,2013-07-21 16:32:00,
2013-07-21 11:43:00,71.0,55.0,-100.00,SE,132,7.0,13.0,57,0.00,,,0.00,471.000000,,2013-07-21 16:43:00,
2013-07-21 11:52:00,71.0,55.0,-100.00,SE,132,7.0,13.0,57,0.00,,,0.00,471.000000,,2013-07-21 16:52:00,
2013-07-21 12:02:00,71.0,55.0,-100.00,SE,132,7.0,13.0,57,0.00,,,0.00,471.000000,,2013-07-21 17:02:00,
2013-07-21 12:33:00,70.0,55.0,-100.00,SE,128,5.0,12.0,58,0.00,,,0.00,245.000000,,2013-07-21 17:33:00,
2013-07-21 12:43:00,70.0,55.0,-100.00,SE,128,5.0,12.0,58,0.00,,,0.00,245.000000,,2013-07-21 17:43:00,
2013-07-21 12:53:00,70.0,55.0,-100.00,SE,128,5.0,12.0,58,0.00,,,0.00,245.000000,,2013-07-21 17:53:00,
2013-07-21 13:01:00,70.0,55.0,-100.00,SE,128,5.0,12.0,58,0.00,,,0.00,245.000000,,2013-07-21 18:01:00,
2013-07-21 13:32:00,67.0,61.0,-100.00,SE,142,3.0,7.0,82,0.01,,,0.01,48.000000,,2013-07-21 18:32:00,
2013-07-21 13:43:00,67.0,61.0,-100.00,SE,142,3.0,7.0,82,0.01,,,0.01,48.000000,,2013-07-21 18:43:00,
2013-07-21 13:52:00,67.0,61.0,-100.00,SE,142,3.0,7.0,82,0.01,,,0.01,48.000000,,2013-07-21 18:52:00,
2013-07-21 14:01:00,67.0,61.0,-100.00,SE,142,3.0,7.0,82,0.01,,,0.01,48.000000,,2013-07-21 19:01:00,
2013-07-21 14:32:00,65.0,61.0,-100.00,ESE,108,4.0,7.0,88,0.02,,,0.03,112.000000,,2013-07-21 19:32:00,
2013-07-21 14:42:00,65.0,61.0,-100.00,ESE,108,4.0,7.0,88,0.02,,,0.03,112.000000,,2013-07-21 19:42:00,
2013-07-21 14:52:00,65.0,61.0,-100.00,ESE,108,4.0,7.0,88,0.02,,,0.03,112.000000,,2013-07-21 19:52:00,
2013-07-21 15:01:00,65.0,61.0,-100.00,ESE,108,4.0,7.0,88,0.02,,,0.03,112.000000,,2013-07-21 20:01:00,
2013-07-21 15:32:00,62.0,61.0,-100.00,SSE,166,6.0,10.0,96,0.10,,,0.13,45.000000,,2013-07-21 20:32:00,
2013-07-21 15:43:00,62.0,61.0,-100.00,SSE,166,6.0,10.0,96,0.10,,,0.13,45.000000,,2013-07-21 20:43:00,
2013-07-21 15:52:00,62.0,61.0,-100.00,SSE,166,6.0,10.0,96,0.10,,,0.13,45.000000,,2013-07-21 20:52:00,
2013-07-21 16:01:00,62.0,61.0,-100.00,SSE,166,6.0,10.0,96,0.10,,,0.13,45.000000,,2013-07-21 21:01:00,
2013-07-21 16:32:00,62.0,61.0,-100.00,South,169,5.0,11.0,97,0.09,,,0.22,77.000000,,2013-07-21 21:32:00,
2013-07-21 16:43:00,62.0,61.0,-100.00,South,169,5.0,11.0,97,0.09,,,0.22,77.000000,,2013-07-21 21:43:00,
2013-07-21 16:52:00,62.0,61.0,-100.00,South,169,5.0,11.0,97,0.09,,,0.22,77.000000,,2013-07-21 21:52:00,
2013-07-21 17:01:00,62.0,61.0,-100.00,South,169,5.0,11.0,97,0.09,,,0.22,77.000000,,2013-07-21 22:01:00,
2013-07-21 17:32:00,64.0,63.0,-100.00,NE,34,3.0,9.0,98,0.02,,,0.24,159.000000,,2013-07-21 22:32:00,
2013-07-21 17:43:00,64.0,63.0,-100.00,NE,34,3.0,9.0,98,0.02,,,0.24,159.000000,,2013-07-21 22:43:00,
2013-07-21 17:52:00,64.0,63.0,-100.00,NE,34,3.0,9.0,98,0.02,,,0.24,159.000000,,2013-07-21 22:52:00,
2013-07-21 18:02:00,64.0,63.0,-100.00,NE,34,3.0,9.0,98,0.02,,,0.24,159.000000,,2013-07-21 23:02:00,
2013-07-21 18:32:00,65.0,64.0,-100.00,ESE,103,3.0,9.0,95,0.00,,,0.24,176.000000,,2013-07-21 23:32:00,
2013-07-21 18:43:00,65.0,64.0,-100.00,ESE,103,3.0,9.0,95,0.00,,,0.24,176.000000,,2013-07-21 23:43:00,
2013-07-21 18:53:00,65.0,64.0,-100.00,ESE,103,3.0,9.0,95,0.00,,,0.24,176.000000,,2013-07-21 23:53:00,
2013-07-21 19:01:00,65.0,64.0,-100.00,ESE,103,3.0,9.0,95,0.00,,,0.24,176.000000,,2013-07-22 00:01:00,
2013-07-21 19:32:00,66.0,64.0,-100.00,East,84,2.0,7.0,94,0.00,,,0.24,121.000000,,2013-07-22 00:32:00,
2013-07-21 19:42:00,66.0,64.0,-100.00,East,84,2.0,7.0,94,0.00,,,0.24,121.000000,,2013-07-22 00:42:00,
2013-07-21 19:53:00,66.0,64.0,-100.00,East,84,2.0,7.0,94,0.00,,,0.24,121.000000,,2013-07-22 00:53:00,
2013-07-21 20:02:00,66.0,64.0,-100.00,East,84,2.0,7.0,94,0.00,,,0.24,121.000000,,2013-07-22 01:02:00,
2013-07-21 20:32:00,65.0,63.0,-100.00,SE,125,4.0,7.0,94,0.00,,,0.24,88.000000,,2013-07-22 01:32:00,
2013-07-21 20:42:00,65.0,63.0,-100.00,SE,125,4.0,7.0,94,0.00,,,0.24,88.000000,,2013-07-22 01:42:00,
2013-07-21 20:52:00,65.0,63.0,-100.00,SE,125,4.0,7.0,94,0.00,,,0.24,88.000000,,2013-07-22 01:52:00,
2013-07-21 21:02:00,65.0,63.0,-100.00,SE,125,4.0,7.0,94,0.00,,,0.24,88.000000,,2013-07-22 02:02:00,
2013-07-21 21:32:00,64.0,63.0,-100.00,SE,131,2.0,6.0,98,0.00,,,0.24,6.000000,,2013-07-22 02:32:00,
2013-07-21 21:43:00,64.0,63.0,-100.00,SE,131,2.0,6.0,98,0.00,,,0.24,6.000000,,2013-07-22 02:43:00,
2013-07-21 21:52:00,64.0,63.0,-100.00,SE,131,2.0,6.0,98,0.00,,,0.24,6.000000,,2013-07-22 02:52:00,
2013-07-21 22:01:00,64.0,63.0,-100.00,SE,131,2.0,6.0,98,0.00,,,0.24,6.000000,,2013-07-22 03:01:00,
2013-07-21 22:33:00,61.0,61.0,-100.00,ESE,116,1.0,3.0,100,0.00,,,0.24,0.000000,,2013-07-22 03:33:00,
2013-07-21 22:43:00,61.0,61.0,-100.00,ESE,116,1.0,3.0,100,0.00,,,0.24,0.000000,,2013-07-22 03:43:00,
2013-07-21 22:53:00,61.0,61.0,-100.00,ESE,116,1.0,3.0,100,0.00,,,0.24,0.000000,,2013-07-22 03:53:00,
2013-07-21 23:01:00,61.0,61.0,-100.00,ESE,116,1.0,3.0,100,0.00,,,0.24,0.000000,,2013-07-22 04:01:00,
2013-07-21 23:33:00,59.0,59.0,-100.00,East,91,0.0,3.0,100,0.00,,,0.24,0.000000,,2013-07-22 04:33:00,
2013-07-21 23:43:00,59.0,59.0,-100.00,East,91,0.0,3.0,100,0.00,,,0.24,0.000000,,2013-07-22 04:43:00,